Tonopah, Arizona
Current Conditions -  °F | °C
As of 4:35 PM on Friday 24 Oct 2014 (Local Time) from KBXK Reporting Station
Clear Clear  
Wind Chill: 91°   Ceiling: Unl
Heat Index: 91°   Visibility: 10mi
Dew Point: 48°   Wind: 3mph
Humidity: 23%   Direction: 150°SSE
Pressure: 29.94"   Gusts: NA
Location:  33.49°N, 112.94°W
Report Text: KBXK 242335Z AUTO 15003KT 10SM CLR 33/09 A2994 RMK AO1
Loading
Personal Weather Stations






























Interactive Weather Map
Tropical Storm Tracking
New forecast layout! Learn more

10-Day Weather Forecast

Advertisements
Track Severe Weather on mobile